sensor_id;sensor_type;location;lat;lon;timestamp;P1;durP1;ratioP1;P2;durP2;ratioP2
17967;SDS011;9109;48.050;11.696;2023-02-28T04:48:27;9.27;;;4.20;;
17967;SDS011;9109;48.050;11.696;2023-02-28T04:51:30;8.60;;;4.00;;
17967;SDS011;9109;48.050;11.696;2023-02-28T04:54:32;13.00;;;4.73;;
17967;SDS011;9109;48.050;11.696;2023-02-28T04:57:33;11.47;;;5.33;;
17967;SDS011;9109;48.050;11.696;2023-02-28T05:00:35;10.47;;;4.67;;
17967;SDS011;9109;48.050;11.696;2023-02-28T05:03:39;10.43;;;4.67;;
17967;SDS011;9109;48.050;11.696;2023-02-28T05:06:41;11.70;;;4.87;;
17967;SDS011;9109;48.050;11.696;2023-02-28T05:09:43;11.03;;;4.97;;
17967;SDS011;9109;48.050;11.696;2023-02-28T05:12:45;11.87;;;4.63;;
17967;SDS011;9109;48.050;11.696;2023-02-28T05:15:48;13.57;;;5.73;;
17967;SDS011;9109;48.050;11.696;2023-02-28T05:18:53;10.57;;;5.80;;
17967;SDS011;9109;48.050;11.696;2023-02-28T05:21:55;13.30;;;5.60;;
17967;SDS011;9109;48.050;11.696;2023-02-28T05:24:58;12.47;;;5.47;;
17967;SDS011;9109;48.050;11.696;2023-02-28T05:28:17;12.00;;;5.40;;
17967;SDS011;9109;48.050;11.696;2023-02-28T05:31:19;15.73;;;5.43;;
17967;SDS011;9109;48.050;11.696;2023-02-28T05:34:23;12.27;;;5.17;;
17967;SDS011;9109;48.050;11.696;2023-02-28T05:37:25;11.57;;;5.67;;
17967;SDS011;9109;48.050;11.696;2023-02-28T05:40:27;14.33;;;5.80;;
17967;SDS011;9109;48.050;11.696;2023-02-28T05:43:32;13.00;;;5.23;;
17967;SDS011;9109;48.050;11.696;2023-02-28T05:46:37;10.93;;;5.47;;
17967;SDS011;9109;48.050;11.696;2023-02-28T05:49:40;11.93;;;6.20;;
17967;SDS011;9109;48.050;11.696;2023-02-28T05:52:48;14.10;;;6.37;;
17967;SDS011;9109;48.050;11.696;2023-02-28T05:55:50;19.93;;;6.97;;
17967;SDS011;9109;48.050;11.696;2023-02-28T05:58:52;12.57;;;6.27;;
17967;SDS011;9109;48.050;11.696;2023-02-28T06:01:54;15.20;;;6.97;;
17967;SDS011;9109;48.050;11.696;2023-02-28T06:04:57;14.53;;;7.07;;
17967;SDS011;9109;48.050;11.696;2023-02-28T06:07:59;21.93;;;7.07;;
17967;SDS011;9109;48.050;11.696;2023-02-28T06:11:02;17.70;;;7.63;;
17967;SDS011;9109;48.050;11.696;2023-02-28T06:14:04;15.97;;;7.27;;
17967;SDS011;9109;48.050;11.696;2023-02-28T06:17:06;20.87;;;8.63;;
17967;SDS011;9109;48.050;11.696;2023-02-28T06:20:12;22.57;;;9.27;;
17967;SDS011;9109;48.050;11.696;2023-02-28T06:23:14;19.83;;;9.77;;
17967;SDS011;9109;48.050;11.696;2023-02-28T06:26:15;24.40;;;10.27;;
17967;SDS011;9109;48.050;11.696;2023-02-28T06:29:17;22.40;;;9.23;;
17967;SDS011;9109;48.050;11.696;2023-02-28T06:32:19;20.63;;;9.03;;
17967;SDS011;9109;48.050;11.696;2023-02-28T06:35:23;20.17;;;9.27;;
17967;SDS011;9109;48.050;11.696;2023-02-28T06:38:25;20.43;;;8.97;;
17967;SDS011;9109;48.050;11.696;2023-02-28T06:41:26;15.73;;;7.80;;
17967;SDS011;9109;48.050;11.696;2023-02-28T06:44:28;18.13;;;8.43;;
17967;SDS011;9109;48.050;11.696;2023-02-28T06:47:35;23.73;;;9.27;;
17967;SDS011;9109;48.050;11.696;2023-02-28T06:50:38;18.47;;;9.07;;
17967;SDS011;9109;48.050;11.696;2023-02-28T06:53:40;21.20;;;9.30;;
17967;SDS011;9109;48.050;11.696;2023-02-28T06:56:42;22.87;;;9.10;;
17967;SDS011;9109;48.050;11.696;2023-02-28T06:59:44;21.27;;;9.43;;
17967;SDS011;9109;48.050;11.696;2023-02-28T07:02:46;20.67;;;10.37;;
17967;SDS011;9109;48.050;11.696;2023-02-28T07:05:49;26.17;;;10.97;;
17967;SDS011;9109;48.050;11.696;2023-02-28T07:08:52;27.43;;;11.50;;
17967;SDS011;9109;48.050;11.696;2023-02-28T07:11:54;35.23;;;13.03;;
17967;SDS011;9109;48.050;11.696;2023-02-28T07:14:56;28.63;;;12.30;;
17967;SDS011;9109;48.050;11.696;2023-02-28T07:17:58;34.17;;;13.53;;
17967;SDS011;9109;48.050;11.696;2023-02-28T07:21:02;40.00;;;15.70;;
17967;SDS011;9109;48.050;11.696;2023-02-28T07:24:05;31.47;;;13.10;;
17967;SDS011;9109;48.050;11.696;2023-02-28T07:27:07;35.00;;;13.53;;
17967;SDS011;9109;48.050;11.696;2023-02-28T07:30:10;33.27;;;13.50;;
17967;SDS011;9109;48.050;11.696;2023-02-28T07:33:12;38.53;;;13.97;;
17967;SDS011;9109;48.050;11.696;2023-02-28T07:36:16;36.43;;;12.77;;
17967;SDS011;9109;48.050;11.696;2023-02-28T07:39:19;31.87;;;12.97;;
17967;SDS011;9109;48.050;11.696;2023-02-28T07:42:21;30.90;;;13.77;;
17967;SDS011;9109;48.050;11.696;2023-02-28T07:45:23;35.50;;;13.67;;
17967;SDS011;9109;48.050;11.696;2023-02-28T07:48:25;37.33;;;15.23;;
17967;SDS011;9109;48.050;11.696;2023-02-28T07:51:29;32.60;;;12.67;;
17967;SDS011;9109;48.050;11.696;2023-02-28T07:54:31;34.23;;;14.23;;
17967;SDS011;9109;48.050;11.696;2023-02-28T07:57:33;28.43;;;13.17;;
17967;SDS011;9109;48.050;11.696;2023-02-28T08:00:35;35.50;;;14.67;;
17967;SDS011;9109;48.050;11.696;2023-02-28T08:03:37;36.57;;;15.17;;
17967;SDS011;9109;48.050;11.696;2023-02-28T08:06:41;27.50;;;13.50;;
17967;SDS011;9109;48.050;11.696;2023-02-28T08:09:43;34.63;;;14.47;;
17967;SDS011;9109;48.050;11.696;2023-02-28T08:12:46;33.00;;;14.87;;
17967;SDS011;9109;48.050;11.696;2023-02-28T08:15:47;32.13;;;13.90;;
17967;SDS011;9109;48.050;11.696;2023-02-28T08:18:49;30.43;;;13.63;;
17967;SDS011;9109;48.050;11.696;2023-02-28T08:21:53;32.50;;;15.30;;
17967;SDS011;9109;48.050;11.696;2023-02-28T08:24:55;32.47;;;14.77;;
17967;SDS011;9109;48.050;11.696;2023-02-28T08:27:57;28.57;;;12.67;;
17967;SDS011;9109;48.050;11.696;2023-02-28T08:31:01;28.40;;;13.77;;
17967;SDS011;9109;48.050;11.696;2023-02-28T08:34:09;30.00;;;14.27;;
17967;SDS011;9109;48.050;11.696;2023-02-28T08:37:14;30.60;;;14.00;;
17967;SDS011;9109;48.050;11.696;2023-02-28T08:40:16;33.60;;;14.53;;
17967;SDS011;9109;48.050;11.696;2023-02-28T08:43:19;31.67;;;14.60;;
17967;SDS011;9109;48.050;11.696;2023-02-28T08:46:21;30.73;;;13.67;;
17967;SDS011;9109;48.050;11.696;2023-02-28T08:49:25;29.63;;;14.20;;
17967;SDS011;9109;48.050;11.696;2023-02-28T08:52:28;30.20;;;13.03;;
17967;SDS011;9109;48.050;11.696;2023-02-28T08:55:30;29.37;;;13.67;;
17967;SDS011;9109;48.050;11.696;2023-02-28T08:58:32;27.33;;;13.10;;
17967;SDS011;9109;48.050;11.696;2023-02-28T09:01:34;27.00;;;13.23;;
17967;SDS011;9109;48.050;11.696;2023-02-28T09:04:37;34.27;;;13.10;;
17967;SDS011;9109;48.050;11.696;2023-02-28T09:07:40;27.97;;;13.03;;
17967;SDS011;9109;48.050;11.696;2023-02-28T09:10:42;29.83;;;13.53;;
17967;SDS011;9109;48.050;11.696;2023-02-28T09:13:44;29.33;;;13.17;;
17967;SDS011;9109;48.050;11.696;2023-02-28T09:16:46;31.50;;;14.30;;
17967;SDS011;9109;48.050;11.696;2023-02-28T09:19:48;28.07;;;13.70;;
17967;SDS011;9109;48.050;11.696;2023-02-28T09:22:51;31.27;;;14.30;;
17967;SDS011;9109;48.050;11.696;2023-02-28T09:25:54;33.03;;;13.77;;
17967;SDS011;9109;48.050;11.696;2023-02-28T09:28:56;33.23;;;14.10;;
17967;SDS011;9109;48.050;11.696;2023-02-28T09:31:59;32.27;;;14.10;;
17967;SDS011;9109;48.050;11.696;2023-02-28T09:35:01;30.37;;;14.80;;
17967;SDS011;9109;48.050;11.696;2023-02-28T09:38:04;29.00;;;12.83;;
17967;SDS011;9109;48.050;11.696;2023-02-28T09:41:10;31.17;;;14.27;;
17967;SDS011;9109;48.050;11.696;2023-02-28T09:44:16;28.30;;;13.73;;
17967;SDS011;9109;48.050;11.696;2023-02-28T09:47:25;31.67;;;14.17;;
17967;SDS011;9109;48.050;11.696;2023-02-28T09:50:33;37.07;;;14.93;;
17967;SDS011;9109;48.050;11.696;2023-02-28T09:53:40;28.73;;;13.60;;
17967;SDS011;9109;48.050;11.696;2023-02-28T09:56:42;30.07;;;14.73;;
17967;SDS011;9109;48.050;11.696;2023-02-28T09:59:49;28.43;;;12.87;;
17967;SDS011;9109;48.050;11.696;2023-02-28T10:03:09;31.23;;;13.93;;
17967;SDS011;9109;48.050;11.696;2023-02-28T10:06:26;33.10;;;14.87;;
17967;SDS011;9109;48.050;11.696;2023-02-28T10:09:32;32.50;;;15.00;;
17967;SDS011;9109;48.050;11.696;2023-02-28T10:12:37;33.20;;;14.77;;
17967;SDS011;9109;48.050;11.696;2023-02-28T10:15:43;30.83;;;14.53;;
17967;SDS011;9109;48.050;11.696;2023-02-28T10:18:48;32.43;;;14.53;;
17967;SDS011;9109;48.050;11.696;2023-02-28T10:21:56;30.73;;;14.17;;
17967;SDS011;9109;48.050;11.696;2023-02-28T10:25:04;29.03;;;13.80;;
17967;SDS011;9109;48.050;11.696;2023-02-28T10:28:16;29.30;;;14.10;;
17967;SDS011;9109;48.050;11.696;2023-02-28T10:31:19;30.47;;;14.53;;
17967;SDS011;9109;48.050;11.696;2023-02-28T10:34:21;30.13;;;14.30;;
17967;SDS011;9109;48.050;11.696;2023-02-28T10:37:23;33.33;;;14.47;;
17967;SDS011;9109;48.050;11.696;2023-02-28T10:40:28;33.20;;;14.80;;
17967;SDS011;9109;48.050;11.696;2023-02-28T10:43:33;29.97;;;14.20;;
17967;SDS011;9109;48.050;11.696;2023-02-28T10:46:35;30.93;;;14.50;;
17967;SDS011;9109;48.050;11.696;2023-02-28T10:49:42;33.27;;;14.77;;
17967;SDS011;9109;48.050;11.696;2023-02-28T10:52:49;29.93;;;14.30;;
17967;SDS011;9109;48.050;11.696;2023-02-28T10:55:57;28.87;;;13.03;;
17967;SDS011;9109;48.050;11.696;2023-02-28T10:59:02;32.27;;;14.80;;
17967;SDS011;9109;48.050;11.696;2023-02-28T11:02:29;33.80;;;15.33;;
17967;SDS011;9109;48.050;11.696;2023-02-28T11:05:33;33.63;;;15.00;;
17967;SDS011;9109;48.050;11.696;2023-02-28T11:08:43;35.10;;;15.93;;
17967;SDS011;9109;48.050;11.696;2023-02-28T11:11:48;38.73;;;14.57;;
17967;SDS011;9109;48.050;11.696;2023-02-28T11:14:53;32.80;;;13.83;;
17967;SDS011;9109;48.050;11.696;2023-02-28T11:17:58;29.87;;;14.37;;
17967;SDS011;9109;48.050;11.696;2023-02-28T11:21:03;33.07;;;14.13;;
17967;SDS011;9109;48.050;11.696;2023-02-28T11:24:07;33.10;;;15.53;;
17967;SDS011;9109;48.050;11.696;2023-02-28T11:30:49;31.30;;;14.07;;
17967;SDS011;9109;48.050;11.696;2023-02-28T11:34:10;37.60;;;15.63;;
17967;SDS011;9109;48.050;11.696;2023-02-28T11:37:25;39.07;;;15.20;;
17967;SDS011;9109;48.050;11.696;2023-02-28T11:40:31;32.43;;;15.17;;
17967;SDS011;9109;48.050;11.696;2023-02-28T11:43:45;34.13;;;15.47;;
17967;SDS011;9109;48.050;11.696;2023-02-28T11:46:57;30.77;;;14.87;;
17967;SDS011;9109;48.050;11.696;2023-02-28T11:53:47;32.37;;;14.93;;
17967;SDS011;9109;48.050;11.696;2023-02-28T11:57:09;31.37;;;13.87;;
17967;SDS011;9109;48.050;11.696;2023-02-28T12:00:32;33.63;;;14.43;;
17967;SDS011;9109;48.050;11.696;2023-02-28T12:03:45;35.43;;;14.50;;
17967;SDS011;9109;48.050;11.696;2023-02-28T12:06:57;40.87;;;14.93;;
17967;SDS011;9109;48.050;11.696;2023-02-28T12:10:06;35.40;;;15.43;;
17967;SDS011;9109;48.050;11.696;2023-02-28T12:13:21;34.73;;;15.33;;
17967;SDS011;9109;48.050;11.696;2023-02-28T12:16:40;26.80;;;13.87;;
17967;SDS011;9109;48.050;11.696;2023-02-28T12:19:53;29.73;;;15.20;;
17967;SDS011;9109;48.050;11.696;2023-02-28T12:23:19;32.13;;;14.73;;
17967;SDS011;9109;48.050;11.696;2023-02-28T12:26:32;30.60;;;14.47;;
17967;SDS011;9109;48.050;11.696;2023-02-28T12:29:40;37.23;;;15.00;;
17967;SDS011;9109;48.050;11.696;2023-02-28T12:32:50;29.67;;;14.40;;
17967;SDS011;9109;48.050;11.696;2023-02-28T12:35:56;31.80;;;14.43;;
17967;SDS011;9109;48.050;11.696;2023-02-28T12:39:00;45.40;;;15.17;;
17967;SDS011;9109;48.050;11.696;2023-02-28T12:42:07;31.00;;;14.87;;
17967;SDS011;9109;48.050;11.696;2023-02-28T12:45:16;28.27;;;13.60;;
17967;SDS011;9109;48.050;11.696;2023-02-28T12:48:24;28.97;;;13.97;;
17967;SDS011;9109;48.050;11.696;2023-02-28T12:51:30;29.50;;;13.97;;
17967;SDS011;9109;48.050;11.696;2023-02-28T12:54:35;25.47;;;13.70;;
17967;SDS011;9109;48.050;11.696;2023-02-28T12:57:46;28.47;;;13.97;;
17967;SDS011;9109;48.050;11.696;2023-02-28T13:01:02;26.80;;;14.37;;
17967;SDS011;9109;48.050;11.696;2023-02-28T13:08:20;37.63;;;15.70;;
17967;SDS011;9109;48.050;11.696;2023-02-28T13:11:45;30.83;;;13.47;;
17967;SDS011;9109;48.050;11.696;2023-02-28T13:14:49;24.73;;;13.13;;
17967;SDS011;9109;48.050;11.696;2023-02-28T13:17:52;28.03;;;13.83;;
17967;SDS011;9109;48.050;11.696;2023-02-28T13:20:56;29.87;;;13.97;;
17967;SDS011;9109;48.050;11.696;2023-02-28T13:24:01;32.50;;;14.43;;
17967;SDS011;9109;48.050;11.696;2023-02-28T13:34:12;33.23;;;14.57;;
17967;SDS011;9109;48.050;11.696;2023-02-28T13:37:35;31.60;;;13.63;;
17967;SDS011;9109;48.050;11.696;2023-02-28T13:40:39;31.70;;;14.67;;
17967;SDS011;9109;48.050;11.696;2023-02-28T13:50:36;32.20;;;14.57;;
17967;SDS011;9109;48.050;11.696;2023-02-28T13:53:41;31.33;;;15.13;;
17967;SDS011;9109;48.050;11.696;2023-02-28T13:57:01;27.30;;;13.80;;
17967;SDS011;9109;48.050;11.696;2023-02-28T14:00:19;30.03;;;15.10;;
17967;SDS011;9109;48.050;11.696;2023-02-28T14:03:34;33.20;;;14.37;;
17967;SDS011;9109;48.050;11.696;2023-02-28T14:06:48;28.43;;;14.13;;
17967;SDS011;9109;48.050;11.696;2023-02-28T14:09:59;31.57;;;14.67;;
17967;SDS011;9109;48.050;11.696;2023-02-28T14:16:44;45.13;;;19.57;;
17967;SDS011;9109;48.050;11.696;2023-02-28T14:19:48;32.33;;;15.60;;
17967;SDS011;9109;48.050;11.696;2023-02-28T14:22:52;32.57;;;15.43;;
17967;SDS011;9109;48.050;11.696;2023-02-28T14:26:06;29.00;;;14.47;;
17967;SDS011;9109;48.050;11.696;2023-02-28T14:29:37;29.33;;;13.80;;
17967;SDS011;9109;48.050;11.696;2023-02-28T14:33:04;28.83;;;14.40;;
17967;SDS011;9109;48.050;11.696;2023-02-28T14:36:18;29.03;;;13.80;;
17967;SDS011;9109;48.050;11.696;2023-02-28T14:39:24;31.23;;;13.63;;
17967;SDS011;9109;48.050;11.696;2023-02-28T14:42:28;34.57;;;13.70;;
17967;SDS011;9109;48.050;11.696;2023-02-28T14:45:33;32.07;;;14.47;;
17967;SDS011;9109;48.050;11.696;2023-02-28T14:48:37;32.97;;;14.23;;
17967;SDS011;9109;48.050;11.696;2023-02-28T14:51:40;33.73;;;14.50;;
17967;SDS011;9109;48.050;11.696;2023-02-28T14:54:43;28.50;;;13.40;;
17967;SDS011;9109;48.050;11.696;2023-02-28T14:57:50;27.50;;;13.33;;
17967;SDS011;9109;48.050;11.696;2023-02-28T15:00:56;29.37;;;13.10;;
17967;SDS011;9109;48.050;11.696;2023-02-28T15:04:00;28.80;;;14.20;;
17967;SDS011;9109;48.050;11.696;2023-02-28T15:07:07;30.07;;;13.63;;
17967;SDS011;9109;48.050;11.696;2023-02-28T15:10:16;27.87;;;12.60;;
17967;SDS011;9109;48.050;11.696;2023-02-28T15:13:19;28.07;;;12.73;;
17967;SDS011;9109;48.050;11.696;2023-02-28T15:16:24;29.93;;;13.43;;
17967;SDS011;9109;48.050;11.696;2023-02-28T15:19:29;34.23;;;14.63;;
17967;SDS011;9109;48.050;11.696;2023-02-28T15:22:34;28.50;;;13.57;;
17967;SDS011;9109;48.050;11.696;2023-02-28T15:25:38;29.70;;;13.83;;
17967;SDS011;9109;48.050;11.696;2023-02-28T15:28:41;27.50;;;12.93;;
17967;SDS011;9109;48.050;11.696;2023-02-28T15:31:46;27.63;;;12.90;;
17967;SDS011;9109;48.050;11.696;2023-02-28T15:34:51;29.13;;;14.10;;
17967;SDS011;9109;48.050;11.696;2023-02-28T15:37:55;28.20;;;13.07;;
17967;SDS011;9109;48.050;11.696;2023-02-28T15:40:58;27.47;;;12.57;;
17967;SDS011;9109;48.050;11.696;2023-02-28T15:47:31;30.30;;;12.63;;
17967;SDS011;9109;48.050;11.696;2023-02-28T15:50:33;27.23;;;12.10;;
17967;SDS011;9109;48.050;11.696;2023-02-28T15:53:36;26.47;;;12.70;;
17967;SDS011;9109;48.050;11.696;2023-02-28T15:56:43;27.40;;;12.30;;
17967;SDS011;9109;48.050;11.696;2023-02-28T15:59:49;27.67;;;12.63;;
17967;SDS011;9109;48.050;11.696;2023-02-28T16:02:54;25.53;;;12.37;;
17967;SDS011;9109;48.050;11.696;2023-02-28T16:06:09;25.90;;;12.53;;
17967;SDS011;9109;48.050;11.696;2023-02-28T16:09:25;29.63;;;12.93;;
17967;SDS011;9109;48.050;11.696;2023-02-28T16:12:31;26.23;;;13.13;;
17967;SDS011;9109;48.050;11.696;2023-02-28T16:15:37;28.07;;;13.73;;
17967;SDS011;9109;48.050;11.696;2023-02-28T16:18:44;29.77;;;14.17;;
17967;SDS011;9109;48.050;11.696;2023-02-28T16:21:46;33.37;;;15.20;;
17967;SDS011;9109;48.050;11.696;2023-02-28T16:24:48;30.93;;;14.70;;
17967;SDS011;9109;48.050;11.696;2023-02-28T16:27:50;33.03;;;14.90;;
17967;SDS011;9109;48.050;11.696;2023-02-28T16:30:54;28.27;;;13.63;;
17967;SDS011;9109;48.050;11.696;2023-02-28T16:33:58;32.20;;;14.53;;
17967;SDS011;9109;48.050;11.696;2023-02-28T16:37:00;34.90;;;14.73;;
17967;SDS011;9109;48.050;11.696;2023-02-28T16:40:02;34.67;;;14.90;;
17967;SDS011;9109;48.050;11.696;2023-02-28T16:43:05;32.17;;;14.03;;
17967;SDS011;9109;48.050;11.696;2023-02-28T16:46:09;37.27;;;14.17;;
17967;SDS011;9109;48.050;11.696;2023-02-28T16:49:14;35.30;;;14.23;;
17967;SDS011;9109;48.050;11.696;2023-02-28T16:52:16;38.67;;;15.03;;
17967;SDS011;9109;48.050;11.696;2023-02-28T16:55:18;35.00;;;15.80;;
17967;SDS011;9109;48.050;11.696;2023-02-28T16:58:20;28.83;;;13.90;;
17967;SDS011;9109;48.050;11.696;2023-02-28T17:01:25;29.27;;;13.97;;
17967;SDS011;9109;48.050;11.696;2023-02-28T17:04:28;33.00;;;14.70;;
17967;SDS011;9109;48.050;11.696;2023-02-28T17:07:30;28.77;;;12.73;;
17967;SDS011;9109;48.050;11.696;2023-02-28T17:10:32;29.07;;;13.83;;
17967;SDS011;9109;48.050;11.696;2023-02-28T17:13:34;32.60;;;15.03;;
17967;SDS011;9109;48.050;11.696;2023-02-28T17:16:36;28.50;;;14.43;;
17967;SDS011;9109;48.050;11.696;2023-02-28T17:19:43;33.00;;;15.00;;
17967;SDS011;9109;48.050;11.696;2023-02-28T17:22:45;35.90;;;14.30;;
17967;SDS011;9109;48.050;11.696;2023-02-28T17:25:47;32.20;;;14.77;;
17967;SDS011;9109;48.050;11.696;2023-02-28T17:28:53;31.83;;;14.70;;
17967;SDS011;9109;48.050;11.696;2023-02-28T17:31:56;30.23;;;14.73;;
17967;SDS011;9109;48.050;11.696;2023-02-28T17:35:00;31.20;;;14.13;;
17967;SDS011;9109;48.050;11.696;2023-02-28T17:38:02;31.97;;;14.90;;
17967;SDS011;9109;48.050;11.696;2023-02-28T17:41:04;31.43;;;14.80;;
17967;SDS011;9109;48.050;11.696;2023-02-28T17:44:06;33.93;;;15.30;;
17967;SDS011;9109;48.050;11.696;2023-02-28T17:47:08;30.93;;;14.90;;
17967;SDS011;9109;48.050;11.696;2023-02-28T17:50:15;35.17;;;15.53;;
17967;SDS011;9109;48.050;11.696;2023-02-28T17:53:18;34.20;;;14.97;;
17967;SDS011;9109;48.050;11.696;2023-02-28T17:56:23;30.77;;;14.80;;
17967;SDS011;9109;48.050;11.696;2023-02-28T17:59:26;31.40;;;15.57;;
17967;SDS011;9109;48.050;11.696;2023-02-28T18:02:33;33.37;;;15.03;;
17967;SDS011;9109;48.050;11.696;2023-02-28T18:05:36;31.77;;;14.60;;
17967;SDS011;9109;48.050;11.696;2023-02-28T18:08:38;29.73;;;14.73;;
17967;SDS011;9109;48.050;11.696;2023-02-28T18:11:41;35.63;;;15.47;;
17967;SDS011;9109;48.050;11.696;2023-02-28T18:14:45;33.13;;;14.60;;
17967;SDS011;9109;48.050;11.696;2023-02-28T18:17:47;28.30;;;14.23;;
17967;SDS011;9109;48.050;11.696;2023-02-28T18:20:51;31.40;;;15.37;;
17967;SDS011;9109;48.050;11.696;2023-02-28T18:23:53;30.70;;;14.43;;
17967;SDS011;9109;48.050;11.696;2023-02-28T18:26:55;31.10;;;15.40;;
17967;SDS011;9109;48.050;11.696;2023-02-28T18:29:57;33.60;;;16.13;;
17967;SDS011;9109;48.050;11.696;2023-02-28T18:32:59;32.87;;;15.40;;
17967;SDS011;9109;48.050;11.696;2023-02-28T18:36:04;34.67;;;15.20;;
17967;SDS011;9109;48.050;11.696;2023-02-28T18:39:06;30.83;;;14.47;;
17967;SDS011;9109;48.050;11.696;2023-02-28T18:42:11;37.67;;;17.03;;
17967;SDS011;9109;48.050;11.696;2023-02-28T18:45:16;30.90;;;15.07;;
17967;SDS011;9109;48.050;11.696;2023-02-28T18:48:18;35.90;;;16.03;;
17967;SDS011;9109;48.050;11.696;2023-02-28T18:51:24;35.17;;;16.40;;
17967;SDS011;9109;48.050;11.696;2023-02-28T18:54:27;33.27;;;16.43;;
17967;SDS011;9109;48.050;11.696;2023-02-28T18:57:29;33.87;;;15.87;;
17967;SDS011;9109;48.050;11.696;2023-02-28T19:00:31;38.30;;;17.47;;
17967;SDS011;9109;48.050;11.696;2023-02-28T19:03:33;37.57;;;16.90;;
17967;SDS011;9109;48.050;11.696;2023-02-28T19:06:36;42.77;;;17.40;;
17967;SDS011;9109;48.050;11.696;2023-02-28T19:09:38;40.20;;;17.17;;
17967;SDS011;9109;48.050;11.696;2023-02-28T19:12:40;32.43;;;16.23;;
17967;SDS011;9109;48.050;11.696;2023-02-28T19:16:09;39.73;;;18.70;;
17967;SDS011;9109;48.050;11.696;2023-02-28T19:19:12;40.77;;;18.57;;
17967;SDS011;9109;48.050;11.696;2023-02-28T19:22:15;42.40;;;20.30;;
17967;SDS011;9109;48.050;11.696;2023-02-28T19:25:17;47.40;;;20.43;;
17967;SDS011;9109;48.050;11.696;2023-02-28T19:28:19;43.57;;;19.90;;
17967;SDS011;9109;48.050;11.696;2023-02-28T19:31:22;46.10;;;21.00;;
17967;SDS011;9109;48.050;11.696;2023-02-28T19:34:25;44.93;;;21.83;;
17967;SDS011;9109;48.050;11.696;2023-02-28T19:37:28;44.67;;;20.67;;
17967;SDS011;9109;48.050;11.696;2023-02-28T19:40:30;42.80;;;20.50;;
17967;SDS011;9109;48.050;11.696;2023-02-28T19:43:32;44.23;;;19.50;;
17967;SDS011;9109;48.050;11.696;2023-02-28T19:46:35;35.40;;;17.30;;
17967;SDS011;9109;48.050;11.696;2023-02-28T19:49:37;38.37;;;18.43;;
17967;SDS011;9109;48.050;11.696;2023-02-28T19:52:40;37.80;;;18.27;;
17967;SDS011;9109;48.050;11.696;2023-02-28T19:55:45;36.60;;;17.77;;
17967;SDS011;9109;48.050;11.696;2023-02-28T19:58:47;39.83;;;18.07;;
17967;SDS011;9109;48.050;11.696;2023-02-28T20:01:49;36.33;;;16.90;;
17967;SDS011;9109;48.050;11.696;2023-02-28T20:04:53;37.00;;;17.00;;
17967;SDS011;9109;48.050;11.696;2023-02-28T20:07:58;30.10;;;15.60;;
17967;SDS011;9109;48.050;11.696;2023-02-28T20:11:01;36.77;;;16.07;;
17967;SDS011;9109;48.050;11.696;2023-02-28T20:14:03;32.40;;;15.23;;
17967;SDS011;9109;48.050;11.696;2023-02-28T20:17:05;34.43;;;15.20;;
17967;SDS011;9109;48.050;11.696;2023-02-28T20:20:07;29.83;;;15.43;;
17967;SDS011;9109;48.050;11.696;2023-02-28T20:23:12;29.00;;;14.03;;
17967;SDS011;9109;48.050;11.696;2023-02-28T20:26:15;27.57;;;13.70;;
17967;SDS011;9109;48.050;11.696;2023-02-28T20:29:19;26.67;;;13.93;;
17967;SDS011;9109;48.050;11.696;2023-02-28T20:32:20;29.80;;;13.23;;
17967;SDS011;9109;48.050;11.696;2023-02-28T20:35:22;32.27;;;13.57;;
17967;SDS011;9109;48.050;11.696;2023-02-28T20:38:26;28.73;;;14.17;;
17967;SDS011;9109;48.050;11.696;2023-02-28T20:41:28;29.57;;;13.67;;
17967;SDS011;9109;48.050;11.696;2023-02-28T20:44:30;27.47;;;13.17;;
17967;SDS011;9109;48.050;11.696;2023-02-28T20:47:32;28.40;;;13.30;;
17967;SDS011;9109;48.050;11.696;2023-02-28T20:50:33;25.80;;;12.87;;
17967;SDS011;9109;48.050;11.696;2023-02-28T20:53:37;30.33;;;14.00;;
17967;SDS011;9109;48.050;11.696;2023-02-28T20:56:39;33.47;;;13.43;;
17967;SDS011;9109;48.050;11.696;2023-02-28T20:59:41;27.33;;;13.40;;
17967;SDS011;9109;48.050;11.696;2023-02-28T21:02:42;27.40;;;13.97;;
17967;SDS011;9109;48.050;11.696;2023-02-28T21:05:44;31.17;;;12.83;;
17967;SDS011;9109;48.050;11.696;2023-02-28T21:08:48;29.63;;;13.37;;
17967;SDS011;9109;48.050;11.696;2023-02-28T21:11:51;29.43;;;13.23;;
17967;SDS011;9109;48.050;11.696;2023-02-28T21:14:54;29.33;;;12.70;;
17967;SDS011;9109;48.050;11.696;2023-02-28T21:17:56;30.40;;;14.27;;
17967;SDS011;9109;48.050;11.696;2023-02-28T21:20:59;31.73;;;14.63;;
17967;SDS011;9109;48.050;11.696;2023-02-28T21:24:03;33.00;;;13.93;;
17967;SDS011;9109;48.050;11.696;2023-02-28T21:27:06;36.37;;;14.83;;
17967;SDS011;9109;48.050;11.696;2023-02-28T21:30:08;28.60;;;13.23;;
17967;SDS011;9109;48.050;11.696;2023-02-28T21:33:10;33.70;;;13.93;;
17967;SDS011;9109;48.050;11.696;2023-02-28T21:36:13;29.70;;;13.43;;
17967;SDS011;9109;48.050;11.696;2023-02-28T21:39:18;30.90;;;13.37;;
17967;SDS011;9109;48.050;11.696;2023-02-28T21:42:22;38.00;;;14.10;;
17967;SDS011;9109;48.050;11.696;2023-02-28T21:45:27;34.70;;;14.53;;
17967;SDS011;9109;48.050;11.696;2023-02-28T21:48:29;27.10;;;12.83;;
17967;SDS011;9109;48.050;11.696;2023-02-28T21:51:31;27.47;;;14.13;;
17967;SDS011;9109;48.050;11.696;2023-02-28T21:54:34;30.23;;;14.53;;
17967;SDS011;9109;48.050;11.696;2023-02-28T21:57:36;31.10;;;14.17;;
17967;SDS011;9109;48.050;11.696;2023-02-28T22:00:38;29.53;;;13.77;;
17967;SDS011;9109;48.050;11.696;2023-02-28T22:03:40;27.73;;;13.33;;
17967;SDS011;9109;48.050;11.696;2023-02-28T22:06:43;30.93;;;13.13;;
17967;SDS011;9109;48.050;11.696;2023-02-28T22:09:47;33.87;;;14.30;;
17967;SDS011;9109;48.050;11.696;2023-02-28T22:12:49;34.07;;;14.77;;
17967;SDS011;9109;48.050;11.696;2023-02-28T22:15:51;32.20;;;13.53;;
17967;SDS011;9109;48.050;11.696;2023-02-28T22:18:53;29.50;;;13.50;;
17967;SDS011;9109;48.050;11.696;2023-02-28T22:22:04;35.70;;;15.30;;
17967;SDS011;9109;48.050;11.696;2023-02-28T22:25:09;29.37;;;13.77;;
17967;SDS011;9109;48.050;11.696;2023-02-28T22:28:11;35.73;;;13.37;;
17967;SDS011;9109;48.050;11.696;2023-02-28T22:31:16;31.73;;;14.60;;
17967;SDS011;9109;48.050;11.696;2023-02-28T22:34:19;36.07;;;14.10;;
17967;SDS011;9109;48.050;11.696;2023-02-28T22:37:20;36.77;;;14.87;;
17967;SDS011;9109;48.050;11.696;2023-02-28T22:40:24;33.27;;;14.57;;
17967;SDS011;9109;48.050;11.696;2023-02-28T22:43:26;35.37;;;14.43;;
17967;SDS011;9109;48.050;11.696;2023-02-28T22:46:28;30.37;;;14.40;;
17967;SDS011;9109;48.050;11.696;2023-02-28T22:49:32;35.10;;;14.57;;
17967;SDS011;9109;48.050;11.696;2023-02-28T22:52:34;32.20;;;15.37;;
17967;SDS011;9109;48.050;11.696;2023-02-28T22:55:40;33.10;;;14.33;;
17967;SDS011;9109;48.050;11.696;2023-02-28T22:58:42;30.53;;;13.83;;
17967;SDS011;9109;48.050;11.696;2023-02-28T23:01:44;32.70;;;14.77;;
17967;SDS011;9109;48.050;11.696;2023-02-28T23:04:46;31.30;;;14.13;;
17967;SDS011;9109;48.050;11.696;2023-02-28T23:07:47;28.60;;;13.73;;
17967;SDS011;9109;48.050;11.696;2023-02-28T23:10:51;33.50;;;15.00;;
17967;SDS011;9109;48.050;11.696;2023-02-28T23:13:53;29.13;;;14.90;;
17967;SDS011;9109;48.050;11.696;2023-02-28T23:17:01;36.10;;;15.03;;
17967;SDS011;9109;48.050;11.696;2023-02-28T23:20:03;31.90;;;14.87;;
17967;SDS011;9109;48.050;11.696;2023-02-28T23:23:09;33.00;;;14.87;;